Time;durP1;ratioP1;P1;durP2;ratioP2;P2;SDS_P1;SDS_P2;PMS_P1;PMS_P2;Temp;Humidity;BMP_temperature;BMP_pressure;BME280_temperature;BME280_humidity;BME280_pressure;Samples;Min_cycle;Max_cycle;Signal;HPM_P1;HPM_P2
2021/06/27 00:02:17;;;;;;;14.45;10.10;;;;;;;-139.48;100.00;61774.03;5053959;28;20091;-69
2021/06/27 00:05:01;;;;;;;11.77;10.55;;;;;;;-139.48;100.00;61774.03;5053203;28;20051;-67
2021/06/27 00:07:46;;;;;;;12.65;9.75;;;;;;;-139.48;100.00;61774.03;5052955;28;20110;-69
2021/06/27 00:10:34;;;;;;;11.57;10.23;;;;;;;-139.48;100.00;61774.03;5038825;28;20129;-67
2021/06/27 00:13:18;;;;;;;11.00;9.80;;;;;;;-139.48;100.00;61774.03;5054146;28;20051;-67
2021/06/27 00:16:03;;;;;;;15.32;10.05;;;;;;;-139.48;100.00;61774.03;5053353;28;20052;-66
2021/06/27 00:18:47;;;;;;;13.27;9.85;;;;;;;-139.48;100.00;61774.03;5054043;28;20362;-67
2021/06/27 00:21:31;;;;;;;13.82;9.27;;;;;;;-139.48;100.00;61774.03;5053946;28;20473;-67
2021/06/27 00:24:16;;;;;;;13.05;10.70;;;;;;;-139.48;100.00;61774.03;5053882;28;20505;-67
2021/06/27 00:27:00;;;;;;;12.15;9.82;;;;;;;-139.48;100.00;61774.03;5038548;28;20052;-66
2021/06/27 00:29:43;;;;;;;13.30;10.82;;;;;;;-139.48;100.00;61774.03;5053675;28;20425;-67
2021/06/27 00:32:27;;;;;;;15.77;11.45;;;;;;;-139.48;100.00;61774.03;5052860;28;20043;-68
2021/06/27 00:35:14;;;;;;;13.48;10.77;;;;;;;-139.48;100.00;61774.03;5053524;28;20426;-67
2021/06/27 00:37:58;;;;;;;11.93;10.35;;;;;;;-139.48;100.00;61774.03;5053710;28;20170;-67
2021/06/27 00:40:42;;;;;;;13.60;11.50;;;;;;;-139.48;100.00;61774.03;5052650;28;20072;-67
2021/06/27 00:43:27;;;;;;;15.00;10.27;;;;;;;-139.48;100.00;61774.03;5053278;28;20083;-66
2021/06/27 00:46:11;;;;;;;15.40;10.90;;;;;;;-139.48;100.00;61774.03;5052231;28;20125;-66
2021/06/27 00:48:55;;;;;;;16.15;12.00;;;;;;;-139.48;100.00;61774.03;5052610;28;20096;-67
2021/06/27 00:51:39;;;;;;;16.55;10.43;;;;;;;-139.48;100.00;61774.03;5053384;28;20047;-67
2021/06/27 00:54:23;;;;;;;12.60;10.57;;;;;;;-139.48;100.00;61774.03;5052227;28;20051;-67
2021/06/27 00:57:09;;;;;;;14.18;11.02;;;;;;;-139.48;100.00;61774.03;5052291;28;20047;-67
2021/06/27 00:59:53;;;;;;;13.23;11.13;;;;;;;-139.48;100.00;61774.03;5038604;28;20520;-66
2021/06/27 01:02:37;;;;;;;13.90;10.82;;;;;;;-139.48;100.00;61774.03;5052080;28;20425;-66
2021/06/27 01:05:27;;;;;;;11.68;10.48;;;;;;;-139.48;100.00;61774.03;5052394;28;20055;-66
2021/06/27 01:08:11;;;;;;;11.32;9.70;;;;;;;-139.48;100.00;61774.03;5052266;28;20401;-69
2021/06/27 01:10:56;;;;;;;13.65;10.00;;;;;;;-139.48;100.00;61774.03;5053316;28;20051;-66
2021/06/27 01:13:40;;;;;;;15.63;11.10;;;;;;;-139.48;100.00;61774.03;5053305;28;20064;-66
2021/06/27 01:16:24;;;;;;;13.00;11.25;;;;;;;-139.48;100.00;61774.03;5052210;28;20044;-66
2021/06/27 01:19:08;;;;;;;13.25;10.85;;;;;;;-139.48;100.00;61774.03;5052290;28;20452;-66
2021/06/27 01:21:52;;;;;;;12.55;10.82;;;;;;;-139.48;100.00;61774.03;5053183;28;20056;-66
2021/06/27 01:24:36;;;;;;;16.45;11.70;;;;;;;-139.48;100.00;61774.03;5037802;28;20136;-67
2021/06/27 01:27:20;;;;;;;15.52;12.35;;;;;;;-139.48;100.00;61774.03;5052831;28;20067;-66
2021/06/27 01:30:09;;;;;;;14.32;10.77;;;;;;;-139.48;100.00;61774.03;5052181;28;20048;-67
2021/06/27 01:32:55;;;;;;;12.05;10.77;;;;;;;-139.48;100.00;61774.03;5051854;28;20048;-66
2021/06/27 01:35:39;;;;;;;12.15;10.68;;;;;;;-139.48;100.00;61774.03;5051826;28;20044;-66
2021/06/27 01:38:23;;;;;;;16.83;11.80;;;;;;;-139.48;100.00;61774.03;5051734;28;20083;-66
2021/06/27 01:41:07;;;;;;;13.00;10.35;;;;;;;-139.48;100.00;61774.03;5052744;28;20098;-67
2021/06/27 01:43:52;;;;;;;12.70;10.75;;;;;;;-139.48;100.00;61774.03;5051985;28;20151;-67
2021/06/27 01:46:40;;;;;;;17.63;11.27;;;;;;;-139.48;100.00;61774.03;5053618;28;20056;-65
2021/06/27 01:49:06;;;;;;;14.80;11.05;;;;;;;-139.48;100.00;61774.03;5092017;22;20390;-69
2021/06/27 01:51:50;;;;;;;;;;;;;;;-139.48;100.00;61774.03;5073167;28;20083;-69
2021/06/27 01:54:38;;;;;;;15.55;11.27;;;;;;;-139.48;100.00;61774.03;5075655;28;20277;-69
2021/06/27 01:57:22;;;;;;;12.85;11.27;;;;;;;-139.48;100.00;61774.03;5075376;28;20047;-69
2021/06/27 02:00:07;;;;;;;17.13;11.85;;;;;;;-139.48;100.00;61774.03;5061192;28;20051;-69
2021/06/27 02:02:50;;;;;;;16.63;11.40;;;;;;;-139.48;100.00;61774.03;5075642;28;20175;-69
2021/06/27 02:05:34;;;;;;;15.73;11.55;;;;;;;-139.48;100.00;61774.03;5061713;28;20059;-69
2021/06/27 02:08:18;;;;;;;14.77;11.43;;;;;;;-139.48;100.00;61774.03;5076259;28;20102;-69
2021/06/27 02:11:04;;;;;;;17.00;11.40;;;;;;;-139.48;100.00;61774.03;5075196;28;20067;-70
2021/06/27 02:13:49;;;;;;;11.55;10.35;;;;;;;-139.48;100.00;61774.03;5075617;28;20050;-69
2021/06/27 02:16:34;;;;;;;17.45;11.32;;;;;;;-139.48;100.00;61774.03;5076240;28;20085;-69
2021/06/27 02:19:18;;;;;;;15.07;10.95;;;;;;;-139.48;100.00;61774.03;5061184;28;20051;-69
2021/06/27 02:22:02;;;;;;;13.57;11.55;;;;;;;-139.48;100.00;61774.03;5075222;28;20047;-70
2021/06/27 02:24:46;;;;;;;16.08;11.95;;;;;;;-139.48;100.00;61774.03;5074910;28;20047;-69
2021/06/27 02:27:30;;;;;;;12.48;11.18;;;;;;;-139.48;100.00;61774.03;5074830;28;20105;-69
2021/06/27 02:30:15;;;;;;;15.43;11.90;;;;;;;-139.48;100.00;61774.03;5060710;28;20413;-69
2021/06/27 02:32:59;;;;;;;14.18;11.73;;;;;;;-139.48;100.00;61774.03;5075082;28;20127;-69
2021/06/27 02:35:43;;;;;;;16.52;12.25;;;;;;;-139.48;100.00;61774.03;5074815;28;20093;-69
2021/06/27 02:38:27;;;;;;;17.17;12.00;;;;;;;-139.48;100.00;61774.03;5074877;28;20039;-68
2021/06/27 02:41:11;;;;;;;16.10;11.77;;;;;;;-139.48;100.00;61774.03;5074924;28;20508;-69
2021/06/27 02:43:55;;;;;;;17.35;11.85;;;;;;;-139.48;100.00;61774.03;5074599;28;20043;-69
2021/06/27 02:46:39;;;;;;;13.98;12.48;;;;;;;-139.48;100.00;61774.03;5074835;28;20090;-69
2021/06/27 02:49:23;;;;;;;14.40;12.20;;;;;;;-139.48;100.00;61774.03;5075052;28;20043;-69
2021/06/27 02:52:07;;;;;;;12.57;11.05;;;;;;;-139.48;100.00;61774.03;5074431;28;20043;-69
2021/06/27 02:54:51;;;;;;;14.07;11.27;;;;;;;-139.48;100.00;61774.03;5075707;28;20042;-69
2021/06/27 02:57:36;;;;;;;17.05;12.23;;;;;;;-139.48;100.00;61774.03;5074736;28;20421;-69
2021/06/27 03:00:20;;;;;;;15.25;12.77;;;;;;;-139.48;100.00;61774.03;5060118;28;20520;-69
2021/06/27 03:03:05;;;;;;;15.95;12.43;;;;;;;-139.48;100.00;61774.03;5074506;28;20174;-69
2021/06/27 03:05:48;;;;;;;14.27;12.20;;;;;;;-139.48;100.00;61774.03;5073055;28;20049;-69
2021/06/27 03:08:32;;;;;;;15.10;11.73;;;;;;;-139.48;100.00;61774.03;5074394;28;20043;-69
2021/06/27 03:11:17;;;;;;;17.00;11.15;;;;;;;-139.48;100.00;61774.03;5074369;28;20051;-69
2021/06/27 03:14:01;;;;;;;18.58;12.65;;;;;;;-139.48;100.00;61774.03;5074997;28;20050;-69
2021/06/27 03:16:45;;;;;;;20.05;12.52;;;;;;;-139.48;100.00;61774.03;5074257;28;20110;-69
2021/06/27 03:19:29;;;;;;;14.50;12.45;;;;;;;-139.48;100.00;61774.03;5059779;28;20055;-69
2021/06/27 03:22:13;;;;;;;16.55;12.20;;;;;;;-139.48;100.00;61774.03;5074156;28;20055;-69
2021/06/27 03:24:57;;;;;;;16.83;12.85;;;;;;;-139.48;100.00;61774.03;5074112;28;20086;-69
2021/06/27 03:27:41;;;;;;;14.50;12.02;;;;;;;-139.48;100.00;61774.03;5073827;28;20097;-70
2021/06/27 03:30:25;;;;;;;15.00;11.93;;;;;;;-139.48;100.00;61774.03;5059858;28;20051;-69
2021/06/27 03:33:10;;;;;;;16.33;12.48;;;;;;;-139.48;100.00;61774.03;5073864;28;20044;-69
2021/06/27 03:35:54;;;;;;;16.17;12.18;;;;;;;-139.48;100.00;61774.03;5073813;28;20445;-70
2021/06/27 03:41:23;;;;;;;18.27;12.30;;;;;;;-139.48;100.00;61774.03;5074057;28;20038;-68
2021/06/27 03:44:07;;;;;;;14.45;12.68;;;;;;;-139.48;100.00;61774.03;5074886;28;20113;-69
2021/06/27 03:46:52;;;;;;;16.77;12.30;;;;;;;-139.48;100.00;61774.03;5074424;28;20559;-70
2021/06/27 03:49:36;;;;;;;13.98;11.70;;;;;;;-139.48;100.00;61774.03;5073535;28;20042;-69
2021/06/27 03:52:20;;;;;;;13.88;11.80;;;;;;;-139.48;100.00;61774.03;5059264;28;20118;-69
2021/06/27 03:55:07;;;;;;;14.65;12.27;;;;;;;-139.48;100.00;61774.03;5073763;28;20117;-70
2021/06/27 03:57:51;;;;;;;18.60;11.80;;;;;;;-139.48;100.00;61774.03;5059156;28;20047;-70
2021/06/27 04:00:35;;;;;;;19.02;11.90;;;;;;;-139.48;100.00;61774.03;5073136;28;20091;-70
2021/06/27 04:03:18;;;;;;;15.32;11.80;;;;;;;-139.48;100.00;61774.03;5058881;28;20425;-69
2021/06/27 04:06:04;;;;;;;;;;;;;;;-139.48;100.00;61774.03;5059569;28;20508;-69
2021/06/27 04:08:47;;;;;;;;;;;;;;;-139.48;100.00;61774.03;5073333;28;20380;-70
2021/06/27 04:11:32;;;;;;;13.40;11.63;;;;;;;-139.48;100.00;61774.03;5073481;28;19919;-70
2021/06/27 04:14:15;;;;;;;15.90;12.25;;;;;;;-139.48;100.00;61774.03;5059011;28;20048;-69
2021/06/27 04:16:59;;;;;;;16.80;11.18;;;;;;;-139.48;100.00;61774.03;5072406;28;20048;-69
2021/06/27 04:19:43;;;;;;;16.73;11.82;;;;;;;-139.48;100.00;61774.03;5058813;28;20047;-69
2021/06/27 04:22:28;;;;;;;18.13;11.55;;;;;;;-139.48;100.00;61774.03;5072673;28;20043;-70
2021/06/27 04:25:11;;;;;;;14.30;11.57;;;;;;;-139.48;100.00;61774.03;5072947;28;20079;-69
2021/06/27 04:27:55;;;;;;;13.80;12.27;;;;;;;-139.48;100.00;61774.03;5072655;28;20103;-69
2021/06/27 04:30:40;;;;;;;16.58;11.52;;;;;;;-139.48;100.00;61774.03;5073856;28;20114;-69
2021/06/27 04:33:24;;;;;;;15.48;12.07;;;;;;;-139.48;100.00;61774.03;5072773;28;20083;-69
2021/06/27 04:36:08;;;;;;;15.48;11.38;;;;;;;-139.48;100.00;61774.03;5072765;28;20050;-69
2021/06/27 04:38:52;;;;;;;14.40;11.10;;;;;;;-139.48;100.00;61774.03;5073656;28;20578;-70
2021/06/27 04:41:36;;;;;;;15.45;11.82;;;;;;;-139.48;100.00;61774.03;5072393;28;20059;-69
2021/06/27 04:44:20;;;;;;;14.32;11.23;;;;;;;-139.48;100.00;61774.03;5073410;28;20139;-69
2021/06/27 04:47:04;;;;;;;14.23;11.32;;;;;;;-139.48;100.00;61774.03;5072250;28;20063;-70
2021/06/27 04:49:48;;;;;;;11.93;10.73;;;;;;;-139.48;100.00;61774.03;5072832;28;20082;-69
2021/06/27 04:52:33;;;;;;;11.90;10.45;;;;;;;-139.48;100.00;61774.03;5058347;28;20512;-69
2021/06/27 04:55:19;;;;;;;13.13;11.63;;;;;;;-139.48;100.00;61774.03;5072355;28;20566;-70
2021/06/27 04:58:03;;;;;;;13.02;11.60;;;;;;;-139.48;100.00;61774.03;5073176;28;20516;-69
2021/06/27 05:00:47;;;;;;;13.35;11.07;;;;;;;-139.48;100.00;61774.03;5072411;28;20413;-69
2021/06/27 05:03:31;;;;;;;13.80;10.68;;;;;;;-139.48;100.00;61774.03;5072422;28;20075;-69
2021/06/27 05:06:15;;;;;;;13.02;10.55;;;;;;;-139.48;100.00;61774.03;5072417;28;20048;-69
2021/06/27 05:08:59;;;;;;;13.70;10.40;;;;;;;-139.48;100.00;61774.03;5058130;28;20082;-69
2021/06/27 05:11:43;;;;;;;12.45;11.15;;;;;;;-139.48;100.00;61774.03;5073284;28;20131;-70
2021/06/27 05:14:27;;;;;;;15.00;10.85;;;;;;;-139.48;100.00;61774.03;5073088;28;20056;-69
2021/06/27 05:17:11;;;;;;;12.90;10.60;;;;;;;-139.48;100.00;61774.03;5058262;28;20474;-69
2021/06/27 05:19:55;;;;;;;13.50;10.00;;;;;;;-139.48;100.00;61774.03;5072283;28;20496;-69
2021/06/27 05:22:40;;;;;;;13.45;10.35;;;;;;;-139.48;100.00;61774.03;5072192;28;20097;-69
2021/06/27 05:25:24;;;;;;;15.77;12.18;;;;;;;-139.48;100.00;61774.03;5073229;28;20051;-70
2021/06/27 05:28:08;;;;;;;12.40;10.32;;;;;;;-139.48;100.00;61774.03;5059456;28;20047;-69
2021/06/27 05:30:52;;;;;;;17.15;10.40;;;;;;;-139.48;100.00;61774.03;5075926;28;20132;-69
2021/06/27 05:33:36;;;;;;;12.57;9.95;;;;;;;-139.48;100.00;61774.03;5075966;28;20067;-70
2021/06/27 05:36:20;;;;;;;16.95;10.23;;;;;;;-139.48;100.00;61774.03;5076155;28;20090;-70
2021/06/27 05:39:08;;;;;;;15.20;10.43;;;;;;;-139.48;100.00;61774.03;5075754;28;20048;-68
2021/06/27 05:41:52;;;;;;;12.18;10.07;;;;;;;-139.48;100.00;61774.03;5061633;28;20058;-69
2021/06/27 05:44:36;;;;;;;11.70;10.50;;;;;;;-139.48;100.00;61774.03;5061587;28;20052;-70
2021/06/27 05:47:20;;;;;;;15.98;11.15;;;;;;;-139.48;100.00;61774.03;5075510;28;20474;-69
2021/06/27 05:50:04;;;;;;;13.38;9.95;;;;;;;-139.48;100.00;61774.03;5075648;28;20441;-69
2021/06/27 05:52:48;;;;;;;11.18;9.95;;;;;;;-139.48;100.00;61774.03;5061630;28;20071;-70
2021/06/27 05:55:32;;;;;;;13.35;10.07;;;;;;;-139.48;100.00;61774.03;5076770;28;20051;-70
2021/06/27 05:58:16;;;;;;;16.13;10.98;;;;;;;-139.48;100.00;61774.03;5061259;28;20051;-69
2021/06/27 06:01:00;;;;;;;13.25;9.80;;;;;;;-139.48;100.00;61774.03;5075700;28;20055;-69
2021/06/27 06:03:44;;;;;;;12.50;10.27;;;;;;;-139.48;100.00;61774.03;5075683;28;20048;-68
2021/06/27 06:06:28;;;;;;;12.55;10.18;;;;;;;-139.48;100.00;61774.03;5075291;28;20417;-70
2021/06/27 06:09:12;;;;;;;13.43;10.25;;;;;;;-139.48;100.00;61774.03;5075347;28;20131;-69
2021/06/27 06:11:56;;;;;;;10.18;9.02;;;;;;;-139.48;100.00;61774.03;5075478;28;20140;-70
2021/06/27 06:14:40;;;;;;;11.85;9.48;;;;;;;-139.48;100.00;61774.03;5061186;28;20051;-70
2021/06/27 06:17:23;;;;;;;10.73;9.63;;;;;;;-139.48;100.00;61774.03;5076410;28;20047;-69
2021/06/27 06:20:08;;;;;;;;;;;;;;;-139.48;100.00;61774.03;5061907;28;20055;-70
2021/06/27 06:22:51;;;;;;;11.48;9.25;;;;;;;-139.48;100.00;61774.03;5060975;28;19919;-70
2021/06/27 06:25:35;;;;;;;;;;;;;;;-139.48;100.00;61774.03;5075812;28;20055;-70
2021/06/27 06:28:20;;;;;;;10.33;9.13;;;;;;;-139.48;100.00;61774.03;5075495;28;19919;-70
2021/06/27 06:31:04;;;;;;;13.23;9.38;;;;;;;-139.48;100.00;61774.03;5075056;28;20075;-69
2021/06/27 06:33:47;;;;;;;13.73;9.48;;;;;;;-139.48;100.00;61774.03;5075048;28;20141;-69
2021/06/27 06:36:32;;;;;;;10.02;8.93;;;;;;;-139.48;100.00;61774.03;5061006;28;20097;-70
2021/06/27 06:39:16;;;;;;;11.57;9.07;;;;;;;-139.48;100.00;61774.03;5075869;28;20097;-70
2021/06/27 06:42:00;;;;;;;14.07;9.65;;;;;;;-139.48;100.00;61774.03;5075098;28;20051;-69
2021/06/27 06:44:44;;;;;;;15.13;10.40;;;;;;;-139.48;100.00;61774.03;5074787;28;20576;-70
2021/06/27 06:47:28;;;;;;;15.63;10.02;;;;;;;-139.48;100.00;61774.03;5075014;28;20546;-69
2021/06/27 06:50:12;;;;;;;12.48;9.65;;;;;;;-139.48;100.00;61774.03;5074361;28;20139;-68
2021/06/27 06:52:55;;;;;;;10.05;8.77;;;;;;;-139.48;100.00;61774.03;5059964;28;20051;-69
2021/06/27 06:55:39;;;;;;;10.80;9.30;;;;;;;-139.48;100.00;61774.03;5075425;28;20051;-70
2021/06/27 06:58:27;;;;;;;12.63;9.07;;;;;;;-139.48;100.00;61774.03;5073981;28;20114;-70
2021/06/27 07:01:12;;;;;;;11.38;9.38;;;;;;;-139.48;100.00;61774.03;5075298;28;20110;-69
2021/06/27 07:03:56;;;;;;;10.93;9.77;;;;;;;-139.48;100.00;61774.03;5074099;28;20094;-70
2021/06/27 07:06:40;;;;;;;10.35;9.05;;;;;;;-139.48;100.00;61774.03;5059549;28;20528;-69
2021/06/27 07:09:23;;;;;;;;;;;;;;;-139.48;100.00;61774.03;5074220;28;20051;-70
2021/06/27 07:12:08;;;;;;;11.55;9.18;;;;;;;-139.48;100.00;61774.03;5059706;28;19919;-70
2021/06/27 07:14:52;;;;;;;12.15;9.15;;;;;;;-139.48;100.00;61774.03;5074757;28;20044;-69
2021/06/27 07:17:36;;;;;;;10.57;8.77;;;;;;;-139.48;100.00;61774.03;5074467;28;20106;-69
2021/06/27 07:20:20;;;;;;;9.93;8.93;;;;;;;-139.48;100.00;61774.03;5073602;28;20063;-70
2021/06/27 07:23:05;;;;;;;10.15;8.82;;;;;;;-139.48;100.00;61774.03;5073921;28;20043;-70
2021/06/27 07:25:49;;;;;;;11.30;8.75;;;;;;;-139.48;100.00;61774.03;5073521;28;20051;-70
2021/06/27 07:28:33;;;;;;;9.95;7.95;;;;;;;-139.48;100.00;61774.03;5059768;28;20082;-69
2021/06/27 07:31:17;;;;;;;8.95;8.00;;;;;;;-139.48;100.00;61774.03;5059132;28;20555;-70
2021/06/27 07:34:01;;;;;;;9.63;7.80;;;;;;;-139.48;100.00;61774.03;5073144;28;20086;-70
2021/06/27 07:36:45;;;;;;;;;;;;;;;-139.48;100.00;61774.03;5073727;28;20054;-70
2021/06/27 07:39:29;;;;;;;14.57;7.93;;;;;;;-139.48;100.00;61774.03;5073289;28;19962;-69
2021/06/27 07:42:13;;;;;;;8.55;7.75;;;;;;;-139.48;100.00;61774.03;5072943;28;20367;-69
2021/06/27 07:44:57;;;;;;;10.45;7.78;;;;;;;-139.48;100.00;61774.03;5074001;28;20501;-70
2021/06/27 07:47:41;;;;;;;9.10;8.20;;;;;;;-139.48;100.00;61774.03;5073437;28;20524;-69
2021/06/27 07:50:25;;;;;;;10.00;7.97;;;;;;;-139.48;100.00;61774.03;5072062;28;20047;-70
2021/06/27 07:53:09;;;;;;;8.93;8.02;;;;;;;-139.48;100.00;61774.03;5078776;22;20102;-65
2021/06/27 07:55:52;;;;;;;9.68;7.55;;;;;;;-139.48;100.00;61774.03;5072905;28;20133;-63
2021/06/27 07:58:36;;;;;;;10.00;7.80;;;;;;;-139.48;100.00;61774.03;5072767;28;20495;-66
2021/06/27 08:01:23;;;;;;;8.82;7.90;;;;;;;-139.48;100.00;61774.03;5058698;28;20087;-65
2021/06/27 08:04:07;;;;;;;10.35;7.63;;;;;;;-139.48;100.00;61774.03;5073349;28;20358;-65
2021/06/27 08:06:51;;;;;;;10.50;9.32;;;;;;;-139.48;100.00;61774.03;5073825;28;20459;-65
2021/06/27 08:09:35;;;;;;;9.35;8.43;;;;;;;-139.48;100.00;61774.03;5072262;28;20098;-65
2021/06/27 08:12:19;;;;;;;;;;;;;;;-139.48;100.00;61774.03;5072633;28;20051;-65
2021/06/27 08:15:06;;;;;;;8.18;7.38;;;;;;;-139.48;100.00;61774.03;5073463;28;19923;-66
2021/06/27 08:17:51;;;;;;;8.63;7.72;;;;;;;-139.48;100.00;61774.03;5058335;28;20052;-65
2021/06/27 08:20:35;;;;;;;9.57;7.82;;;;;;;-139.48;100.00;61774.03;5072355;28;20106;-65
2021/06/27 08:23:19;;;;;;;11.82;7.57;;;;;;;-139.48;100.00;61774.03;5072018;28;20075;-65
2021/06/27 08:26:04;;;;;;;;;;;;;;;-139.48;100.00;61774.03;5072490;28;20051;-65
2021/06/27 08:28:50;;;;;;;8.48;7.55;;;;;;;-139.48;100.00;61774.03;5072201;28;19919;-65
2021/06/27 08:31:34;;;;;;;10.00;7.88;;;;;;;-139.48;100.00;61774.03;5071958;28;20051;-66
2021/06/27 08:34:18;;;;;;;;;;;;;;;-139.48;100.00;61774.03;5058258;28;20455;-64
2021/06/27 08:37:02;;;;;;;7.60;6.80;;;;;;;-139.48;100.00;61774.03;5072508;28;19927;-66
2021/06/27 08:39:46;;;;;;;7.63;6.93;;;;;;;-139.48;100.00;61774.03;5072075;28;20539;-66
2021/06/27 08:42:30;;;;;;;11.02;8.60;;;;;;;-139.48;100.00;61774.03;5072174;28;20039;-65
2021/06/27 08:45:16;;;;;;;;;;;;;;;-139.48;100.00;61774.03;5058083;28;20052;-66
2021/06/27 08:48:00;;;;;;;7.80;7.00;;;;;;;-139.48;100.00;61774.03;5072967;28;19920;-64
2021/06/27 08:50:45;;;;;;;9.02;7.15;;;;;;;-139.48;100.00;61774.03;5072088;28;20209;-65
2021/06/27 08:53:28;;;;;;;;;;;;;;;-139.48;100.00;61774.03;5071839;28;20520;-66
2021/06/27 08:56:12;;;;;;;11.95;7.55;;;;;;;-139.48;100.00;61774.03;5072652;28;19924;-65
2021/06/27 08:58:56;;;;;;;;;;;;;;;-139.48;100.00;61774.03;5072268;28;20105;-65
2021/06/27 09:01:40;;;;;;;10.48;7.07;;;;;;;-139.48;100.00;61774.03;5057331;28;20385;-66
2021/06/27 09:04:24;;;;;;;8.77;6.90;;;;;;;-139.48;100.00;61774.03;5057358;28;20106;-64
2021/06/27 09:07:34;;;;;;;11.43;6.88;;;;;;;-139.48;100.00;61774.03;5071603;28;20051;-66
2021/06/27 09:10:18;;;;;;;10.07;8.30;;;;;;;-139.48;100.00;61774.03;5057382;28;20047;-65
2021/06/27 09:13:02;;;;;;;8.43;6.38;;;;;;;-139.48;100.00;61774.03;5072582;28;20149;-66
2021/06/27 09:15:50;;;;;;;;;;;;;;;-139.48;100.00;61774.03;5072949;28;20532;-65
2021/06/27 09:18:34;;;;;;;7.03;6.43;;;;;;;-139.48;100.00;61774.03;5071492;28;20400;-65
2021/06/27 09:21:18;;;;;;;;;;;;;;;-139.48;100.00;61774.03;5072876;28;20524;-66
2021/06/27 09:24:04;;;;;;;9.25;6.20;;;;;;;-139.48;100.00;61774.03;5057255;28;19985;-65
2021/06/27 09:26:49;;;;;;;7.10;6.25;;;;;;;-139.48;100.00;61774.03;5071676;28;20393;-65
2021/06/27 09:29:32;;;;;;;8.98;6.13;;;;;;;-139.48;100.00;61774.03;5072756;28;20413;-66
2021/06/27 09:32:22;;;;;;;9.70;6.05;;;;;;;-139.48;100.00;61774.03;5057545;28;20047;-65
2021/06/27 09:35:06;;;;;;;7.03;5.75;;;;;;;-139.48;100.00;61774.03;5071544;28;20094;-65
2021/06/27 09:37:50;;;;;;;6.68;6.05;;;;;;;-139.48;100.00;61774.03;5071367;28;20414;-65
2021/06/27 09:40:34;;;;;;;7.47;6.18;;;;;;;-139.48;100.00;61774.03;5072675;28;20134;-66
2021/06/27 09:43:19;;;;;;;6.93;6.22;;;;;;;-139.48;100.00;61774.03;5071235;28;20101;-65
2021/06/27 09:46:12;;;;;;;6.45;5.85;;;;;;;-139.48;100.00;61774.03;5072636;28;20097;-64
2021/06/27 09:49:02;;;;;;;6.25;5.63;;;;;;;-139.48;100.00;61774.03;5071344;28;20512;-66
2021/06/27 09:51:53;;;;;;;6.07;5.57;;;;;;;-139.48;100.00;61774.03;5071326;28;20067;-66
2021/06/27 09:54:38;;;;;;;9.38;5.70;;;;;;;-139.48;100.00;61774.03;5071380;28;20038;-66
2021/06/27 09:57:22;;;;;;;6.07;5.47;;;;;;;-139.48;100.00;61774.03;5057081;28;20051;-65
2021/06/27 10:00:30;;;;;;;8.88;5.55;;;;;;;-139.48;100.00;61774.03;5071631;28;20043;-65
2021/06/27 10:03:15;;;;;;;5.65;5.18;;;;;;;-139.48;100.00;61774.03;5071061;28;20445;-65
2021/06/27 10:06:06;;;;;;;7.53;5.65;;;;;;;-139.48;100.00;61774.03;5071261;28;20047;-65
2021/06/27 10:08:50;;;;;;;6.15;5.45;;;;;;;-139.48;100.00;61774.03;5071152;28;20047;-66
2021/06/27 10:11:35;;;;;;;6.10;5.43;;;;;;;-139.48;100.00;61774.03;5057030;28;20050;-65
2021/06/27 10:14:18;;;;;;;5.65;5.15;;;;;;;-139.48;100.00;61774.03;5072428;28;20467;-66
2021/06/27 10:17:04;;;;;;;5.88;5.30;;;;;;;-139.48;100.00;61774.03;5074850;28;20500;-66
2021/06/27 10:19:49;;;;;;;5.30;4.90;;;;;;;-139.48;100.00;61774.03;5076092;28;20205;-66
2021/06/27 10:22:34;;;;;;;6.85;4.53;;;;;;;-139.48;100.00;61774.03;5075810;28;20043;-66
2021/06/27 10:25:18;;;;;;;5.72;5.25;;;;;;;-139.48;100.00;61774.03;5074792;28;20113;-66
2021/06/27 10:28:02;;;;;;;5.00;4.60;;;;;;;-139.48;100.00;61774.03;5074379;28;20127;-66
2021/06/27 10:30:46;;;;;;;5.18;4.72;;;;;;;-139.48;100.00;61774.03;5060778;28;20098;-66
2021/06/27 10:33:31;;;;;;;5.20;4.80;;;;;;;-139.48;100.00;61774.03;5074473;28;20086;-66
2021/06/27 10:36:23;;;;;;;6.18;5.57;;;;;;;-139.48;100.00;61774.03;5075582;28;20055;-66
2021/06/27 10:39:13;;;;;;;4.97;4.45;;;;;;;-139.48;100.00;61774.03;5075354;28;20425;-66
2021/06/27 10:42:06;;;;;;;4.80;4.38;;;;;;;-139.48;100.00;61774.03;5074207;28;20203;-66
2021/06/27 10:44:59;;;;;;;;;;;;;;;-139.48;100.00;61774.03;5074601;28;20078;-67
2021/06/27 10:47:43;;;;;;;4.90;4.50;;;;;;;-139.48;100.00;61774.03;5075111;28;19969;-67
2021/06/27 10:50:52;;;;;;;6.40;4.53;;;;;;;-139.48;100.00;61774.03;5074316;28;20460;-68
2021/06/27 10:54:09;;;;;;;4.55;4.13;;;;;;;-139.48;100.00;61774.03;5073739;28;20528;-67
2021/06/27 10:57:20;;;;;;;5.60;4.20;;;;;;;-139.48;100.00;61774.03;5074159;28;20055;-70
2021/06/27 11:00:05;;;;;;;4.30;3.90;;;;;;;-139.48;100.00;61774.03;5060623;28;20054;-68
2021/06/27 11:02:49;;;;;;;4.40;4.00;;;;;;;-139.48;100.00;61774.03;5073550;28;20047;-68
2021/06/27 11:05:36;;;;;;;4.60;4.20;;;;;;;-139.48;100.00;61774.03;5059830;28;20067;-67
2021/06/27 11:08:35;;;;;;;5.22;4.57;;;;;;;-139.48;100.00;61774.03;5074896;28;20066;-68
2021/06/27 11:11:21;;;;;;;5.18;4.68;;;;;;;-139.48;100.00;61774.03;5073518;28;20127;-68
2021/06/27 11:14:11;;;;;;;4.93;4.22;;;;;;;-139.48;100.00;61774.03;5074641;28;20091;-68
2021/06/27 11:17:06;;;;;;;8.38;3.90;;;;;;;-139.48;100.00;61774.03;5073920;28;20634;-68
2021/06/27 11:20:04;;;;;;;4.25;3.95;;;;;;;-139.48;100.00;61774.03;5073530;28;20486;-68
2021/06/27 11:22:50;;;;;;;4.97;4.22;;;;;;;-139.48;100.00;61774.03;5073467;28;20447;-67
2021/06/27 11:25:38;;;;;;;3.92;3.63;;;;;;;-139.48;100.00;61774.03;5072511;28;20098;-68
2021/06/27 11:28:22;;;;;;;4.25;3.95;;;;;;;-139.48;100.00;61774.03;5073482;28;20114;-67
2021/06/27 11:31:25;;;;;;;4.85;3.90;;;;;;;-139.48;100.00;61774.03;5074232;28;20128;-68
2021/06/27 11:34:28;;;;;;;4.90;4.22;;;;;;;-139.48;100.00;61774.03;5072970;28;20039;-68
2021/06/27 11:37:15;;;;;;;4.40;4.10;;;;;;;-139.48;100.00;61774.03;5073344;28;20044;-68
2021/06/27 11:40:01;;;;;;;4.80;4.28;;;;;;;-139.48;100.00;61774.03;5074430;28;20051;-68
2021/06/27 11:42:46;;;;;;;4.90;4.32;;;;;;;-139.48;100.00;61774.03;5073109;28;20177;-68
2021/06/27 11:45:30;;;;;;;5.55;4.10;;;;;;;-139.48;100.00;61774.03;5059479;28;20055;-69
2021/06/27 11:48:14;;;;;;;4.00;3.70;;;;;;;-139.48;100.00;61774.03;5073641;28;20175;-68
2021/06/27 11:50:59;;;;;;;3.90;3.60;;;;;;;-139.48;100.00;61774.03;5059779;28;20508;-68
2021/06/27 11:53:44;;;;;;;4.88;4.28;;;;;;;-139.48;100.00;61774.03;5074092;28;20052;-68
2021/06/27 11:56:28;;;;;;;8.68;4.07;;;;;;;-139.48;100.00;61774.03;5059385;28;20047;-68
2021/06/27 11:59:12;;;;;;;4.50;4.07;;;;;;;-139.48;100.00;61774.03;5059327;28;20131;-68
2021/06/27 12:02:13;;;;;;;4.35;3.85;;;;;;;-139.48;100.00;61774.03;5073360;28;20109;-68
2021/06/27 12:04:59;;;;;;;4.20;3.90;;;;;;;-139.48;100.00;61774.03;5073089;28;20105;-68
2021/06/27 12:07:46;;;;;;;5.30;4.13;;;;;;;-139.48;100.00;61774.03;5073042;28;20066;-69
2021/06/27 12:10:30;;;;;;;5.22;3.92;;;;;;;-139.48;100.00;61774.03;5072980;28;20511;-68
2021/06/27 12:13:14;;;;;;;4.50;4.10;;;;;;;-139.48;100.00;61774.03;5072955;28;20043;-68
2021/06/27 12:15:59;;;;;;;5.10;4.70;;;;;;;-139.48;100.00;61774.03;5072850;28;20043;-68
2021/06/27 12:18:43;;;;;;;5.60;4.40;;;;;;;-139.48;100.00;61774.03;5073767;28;20048;-68
2021/06/27 12:21:27;;;;;;;4.40;4.00;;;;;;;-139.48;100.00;61774.03;5073014;28;20547;-68
2021/06/27 12:24:12;;;;;;;4.55;4.25;;;;;;;-139.48;100.00;61774.03;5072532;28;20504;-69
2021/06/27 12:27:09;;;;;;;5.03;4.50;;;;;;;-139.48;100.00;61774.03;5058837;28;20063;-68
2021/06/27 12:29:53;;;;;;;4.32;3.97;;;;;;;-139.48;100.00;61774.03;5072858;28;20047;-68